createdAt,value
2018-12-23T00:00:12.404Z,4.30
2018-12-23T00:02:40.035Z,4.20
2018-12-23T00:05:11.410Z,4.20
2018-12-23T00:07:36.992Z,4.20
2018-12-23T00:10:06.681Z,4.20
2018-12-23T00:12:34.156Z,4.20
2018-12-23T00:15:01.639Z,4.20
2018-12-23T00:17:29.133Z,4.20
2018-12-23T00:19:56.611Z,4.20
2018-12-23T00:22:24.084Z,4.20
2018-12-23T00:24:51.625Z,4.20
2018-12-23T00:27:19.101Z,4.20
2018-12-23T00:29:46.578Z,4.20
2018-12-23T00:32:14.087Z,4.20
2018-12-23T00:34:41.561Z,4.10
2018-12-23T00:37:09.032Z,4.10
2018-12-23T00:39:36.529Z,4.20
2018-12-23T00:42:04.096Z,4.10
2018-12-23T00:44:31.573Z,4.10
2018-12-23T00:46:59.083Z,4.10
2018-12-23T00:49:26.649Z,4.10
2018-12-23T00:51:54.125Z,4.00
2018-12-23T00:54:21.693Z,4.00
2018-12-23T00:56:49.169Z,3.90
2018-12-23T00:59:16.645Z,4.00
2018-12-23T01:01:44.156Z,4.10
2018-12-23T01:04:11.628Z,4.00
2018-12-23T01:06:39.126Z,4.00
2018-12-23T01:09:06.925Z,4.00
2018-12-23T01:11:34.401Z,3.90
2018-12-23T01:14:01.892Z,4.00
2018-12-23T01:16:29.396Z,3.90
2018-12-23T01:18:56.880Z,4.00
2018-12-23T01:21:24.396Z,3.90
2018-12-23T01:23:51.920Z,3.90
2018-12-23T01:26:19.388Z,4.00
2018-12-23T01:28:46.861Z,3.90
2018-12-23T01:31:14.356Z,3.90
2018-12-23T01:33:41.837Z,3.90
2018-12-23T01:36:09.317Z,3.90
2018-12-23T01:38:36.813Z,3.90
2018-12-23T01:41:04.492Z,3.90
2018-12-23T01:43:32.277Z,4.00
2018-12-23T01:45:59.784Z,4.00
2018-12-23T01:48:27.532Z,4.00
2018-12-23T01:50:55.005Z,4.00
2018-12-23T01:53:22.502Z,3.90
2018-12-23T01:55:49.972Z,3.90
2018-12-23T01:58:17.444Z,3.90
2018-12-23T02:00:44.952Z,3.90
2018-12-23T02:03:12.433Z,3.90
2018-12-23T02:05:46.004Z,3.90
2018-12-23T02:08:09.419Z,3.90
2018-12-23T02:10:36.892Z,3.90
2018-12-23T02:13:04.466Z,3.90
2018-12-23T02:15:31.968Z,3.90
2018-12-23T02:17:59.440Z,3.80
2018-12-23T02:20:26.918Z,3.80
2018-12-23T02:22:54.420Z,3.80
2018-12-23T02:25:21.893Z,3.80
2018-12-23T02:27:49.373Z,3.80
2018-12-23T02:30:17.105Z,3.80
2018-12-23T02:32:44.578Z,3.80
2018-12-23T02:35:12.053Z,3.80
2018-12-23T02:37:39.558Z,3.80
2018-12-23T02:40:07.028Z,3.70
2018-12-23T02:42:34.505Z,3.80
2018-12-23T02:45:02.038Z,3.80
2018-12-23T02:47:29.513Z,3.80
2018-12-23T02:49:57.038Z,3.80
2018-12-23T02:52:24.841Z,3.70
2018-12-23T02:54:52.307Z,3.80
2018-12-23T02:57:19.780Z,3.80
2018-12-23T02:59:47.279Z,3.80
2018-12-23T03:02:14.756Z,3.80
2018-12-23T03:04:42.236Z,3.80
2018-12-23T03:07:09.731Z,3.70
2018-12-23T03:09:37.196Z,3.80
2018-12-23T03:12:04.670Z,3.80
2018-12-23T03:14:32.170Z,3.70
2018-12-23T03:16:59.642Z,3.70
2018-12-23T03:19:27.114Z,3.70
2018-12-23T03:21:54.615Z,3.70
2018-12-23T03:24:22.091Z,3.60
2018-12-23T03:26:49.564Z,3.70
2018-12-23T03:29:17.063Z,3.70
2018-12-23T03:31:44.551Z,3.70
2018-12-23T03:34:12.024Z,3.70
2018-12-23T03:36:39.532Z,3.70
2018-12-23T03:39:07.008Z,3.60
2018-12-23T03:41:34.487Z,3.70
2018-12-23T03:44:01.989Z,3.70
2018-12-23T03:46:29.460Z,3.70
2018-12-23T03:48:56.943Z,3.60
2018-12-23T03:51:24.444Z,3.60
2018-12-23T03:53:51.923Z,3.60
2018-12-23T03:56:19.393Z,3.60
2018-12-23T03:58:46.928Z,3.60
2018-12-23T04:01:14.401Z,3.60
2018-12-23T04:03:41.873Z,3.60
2018-12-23T04:06:09.384Z,3.70
2018-12-23T04:08:36.861Z,3.60
2018-12-23T04:11:04.332Z,3.60
2018-12-23T04:13:31.851Z,3.60
2018-12-23T04:15:59.321Z,3.70
2018-12-23T04:18:26.837Z,3.70
2018-12-23T04:20:54.347Z,3.70
2018-12-23T04:23:21.824Z,3.60
2018-12-23T04:25:49.298Z,3.70
2018-12-23T04:28:16.809Z,3.60
2018-12-23T04:30:44.281Z,3.70
2018-12-23T04:33:11.756Z,3.70
2018-12-23T04:35:39.252Z,3.60
2018-12-23T04:38:06.726Z,3.70
2018-12-23T04:40:34.196Z,3.60
2018-12-23T04:43:01.701Z,3.60
2018-12-23T04:45:29.279Z,3.70
2018-12-23T04:47:56.765Z,3.60
2018-12-23T04:50:24.269Z,3.60
2018-12-23T04:52:51.744Z,3.60
2018-12-23T04:55:19.217Z,3.60
2018-12-23T04:57:46.833Z,3.60
2018-12-23T05:00:14.484Z,3.70
2018-12-23T05:02:41.960Z,3.70
2018-12-23T05:05:09.460Z,3.70
2018-12-23T05:07:36.936Z,3.70
2018-12-23T05:10:04.408Z,3.70
2018-12-23T05:12:31.947Z,3.70
2018-12-23T05:14:59.497Z,3.70
2018-12-23T05:17:26.968Z,3.70
2018-12-23T05:19:54.469Z,3.70
2018-12-23T05:22:22.065Z,3.70
2018-12-23T05:24:49.532Z,3.70
2018-12-23T05:27:17.038Z,3.70
2018-12-23T05:29:44.516Z,3.60
2018-12-23T05:32:11.984Z,3.70
2018-12-23T05:34:39.494Z,3.70
2018-12-23T05:37:06.968Z,3.70
2018-12-23T05:39:34.440Z,3.80
2018-12-23T05:42:01.947Z,3.70
2018-12-23T05:44:29.417Z,3.70
2018-12-23T05:46:56.894Z,3.70
2018-12-23T05:49:24.396Z,3.70
2018-12-23T05:51:51.864Z,3.70
2018-12-23T05:54:19.714Z,3.70
2018-12-23T05:56:47.229Z,3.70
2018-12-23T05:59:14.706Z,3.70
2018-12-23T06:01:42.181Z,3.70
2018-12-23T06:04:09.681Z,3.70
2018-12-23T06:06:37.261Z,3.70
2018-12-23T06:09:05.825Z,3.70
2018-12-23T06:11:33.322Z,3.60
2018-12-23T06:14:00.791Z,3.60
2018-12-23T06:16:28.302Z,3.60
2018-12-23T06:18:55.876Z,3.70
2018-12-23T06:21:23.348Z,3.70
2018-12-23T06:23:50.821Z,3.70
2018-12-23T06:26:18.328Z,3.70
2018-12-23T06:28:45.806Z,3.70
2018-12-23T06:31:13.279Z,3.70
2018-12-23T06:33:40.785Z,3.70
2018-12-23T06:36:08.259Z,3.70
2018-12-23T06:38:35.733Z,3.70
2018-12-23T06:41:03.237Z,3.70
2018-12-23T06:43:30.706Z,3.70
2018-12-23T06:45:58.180Z,3.70
2018-12-23T06:48:25.683Z,3.80
2018-12-23T06:50:53.160Z,3.70
2018-12-23T06:53:20.634Z,3.80
2018-12-23T06:55:48.135Z,3.80
2018-12-23T06:58:15.600Z,3.80
2018-12-23T07:00:43.075Z,3.80
2018-12-23T07:03:10.571Z,3.80
2018-12-23T07:05:38.046Z,3.80
2018-12-23T07:08:05.525Z,3.80
2018-12-23T07:10:33.025Z,3.80
2018-12-23T07:13:00.502Z,3.80
2018-12-23T07:15:28.022Z,3.80
2018-12-23T07:17:55.520Z,3.80
2018-12-23T07:20:22.990Z,3.80
2018-12-23T07:22:50.461Z,3.90
2018-12-23T07:25:17.975Z,3.80
2018-12-23T07:27:45.444Z,3.80
2018-12-23T07:30:12.913Z,3.90
2018-12-23T07:32:40.416Z,3.90
2018-12-23T07:35:07.888Z,3.90
2018-12-23T07:37:35.363Z,3.90
2018-12-23T07:40:02.883Z,3.90
2018-12-23T07:42:30.361Z,3.90
2018-12-23T07:44:57.836Z,3.90
2018-12-23T07:47:25.348Z,3.90
2018-12-23T07:49:52.863Z,3.90
2018-12-23T07:52:20.329Z,3.90
2018-12-23T07:54:47.927Z,3.90
2018-12-23T07:57:15.450Z,3.90
2018-12-23T07:59:43.008Z,3.90
2018-12-23T08:02:10.505Z,3.90
2018-12-23T08:04:37.986Z,3.90
2018-12-23T08:07:05.462Z,3.90
2018-12-23T08:09:32.960Z,3.90
2018-12-23T08:12:00.443Z,4.00
2018-12-23T08:14:27.965Z,3.90
2018-12-23T08:16:55.453Z,3.90
2018-12-23T08:19:22.944Z,3.90
2018-12-23T08:21:50.426Z,3.90
2018-12-23T08:24:17.931Z,3.90
2018-12-23T08:26:45.400Z,3.90
2018-12-23T08:29:12.881Z,3.90
2018-12-23T08:31:40.377Z,3.90
2018-12-23T08:34:07.874Z,4.00
2018-12-23T08:36:35.420Z,4.00
2018-12-23T08:39:05.032Z,4.10
2018-12-23T08:41:33.075Z,4.10
2018-12-23T08:44:00.940Z,4.10
2018-12-23T08:46:28.488Z,4.00
2018-12-23T08:48:56.007Z,4.00
2018-12-23T08:51:23.558Z,4.10
2018-12-23T08:53:51.123Z,4.10
2018-12-23T08:56:18.673Z,4.10
2018-12-23T08:58:46.179Z,4.10
2018-12-23T09:01:13.684Z,4.10
2018-12-23T09:03:41.168Z,4.10
2018-12-23T09:06:08.662Z,4.10
2018-12-23T09:08:36.186Z,4.10
2018-12-23T09:11:03.733Z,4.10
2018-12-23T09:13:31.210Z,4.10
2018-12-23T09:15:58.752Z,4.20
2018-12-23T09:18:26.851Z,4.20
2018-12-23T09:20:54.331Z,4.20
2018-12-23T09:23:21.860Z,4.30
2018-12-23T09:25:49.339Z,4.30
2018-12-23T09:28:16.826Z,4.30
2018-12-23T09:30:44.367Z,4.30
2018-12-23T09:33:11.848Z,4.40
2018-12-23T09:35:39.340Z,4.40
2018-12-23T09:38:06.938Z,4.50
2018-12-23T09:40:34.414Z,4.50
2018-12-23T09:43:01.887Z,4.60
2018-12-23T09:45:29.405Z,4.60
2018-12-23T09:47:56.896Z,4.60
2018-12-23T09:50:24.365Z,4.70
2018-12-23T09:52:51.875Z,4.70
2018-12-23T09:55:19.348Z,4.70
2018-12-23T09:57:46.817Z,4.70
2018-12-23T10:00:14.448Z,4.80
2018-12-23T10:02:41.920Z,4.80
2018-12-23T10:05:09.509Z,4.80
2018-12-23T10:07:37.010Z,4.80
2018-12-23T10:10:06.465Z,4.80
2018-12-23T10:12:33.948Z,4.90
2018-12-23T10:15:01.459Z,4.90
2018-12-23T10:17:28.932Z,4.90
2018-12-23T10:19:56.409Z,4.90
2018-12-23T10:22:23.942Z,4.90
2018-12-23T10:24:51.413Z,4.90
2018-12-23T10:27:18.893Z,5.00
2018-12-23T10:29:46.401Z,5.00
2018-12-23T10:32:13.879Z,5.00
2018-12-23T10:34:41.349Z,5.10
2018-12-23T10:37:08.876Z,5.10
2018-12-23T10:39:36.349Z,5.20
2018-12-23T10:42:03.822Z,5.20
2018-12-23T10:44:31.323Z,5.30
2018-12-23T10:46:58.990Z,5.30
2018-12-23T10:49:26.461Z,5.40
2018-12-23T10:51:53.964Z,5.40
2018-12-23T10:54:21.444Z,5.40
2018-12-23T10:56:48.922Z,5.50
2018-12-23T10:59:16.455Z,5.40
2018-12-23T11:01:43.928Z,5.50
2018-12-23T11:04:11.393Z,5.50
2018-12-23T11:06:39.164Z,5.50
2018-12-23T11:09:06.649Z,5.60
2018-12-23T11:11:34.130Z,5.60
2018-12-23T11:14:01.634Z,5.70
2018-12-23T11:17:01.802Z,5.70
2018-12-23T11:19:30.453Z,5.70
2018-12-23T11:21:59.009Z,5.70
2018-12-23T11:24:27.563Z,5.80
2018-12-23T11:26:56.153Z,5.80
2018-12-23T11:29:24.741Z,5.80
2018-12-23T11:31:54.833Z,5.80
2018-12-23T11:34:23.422Z,5.80
2018-12-23T11:36:51.990Z,5.90
2018-12-23T11:39:20.550Z,5.90
2018-12-23T11:41:49.125Z,5.90
2018-12-23T11:44:17.683Z,5.90
2018-12-23T11:46:46.236Z,5.90
2018-12-23T11:49:14.822Z,6.00
2018-12-23T11:51:43.437Z,6.00
2018-12-23T11:54:11.993Z,6.00
2018-12-23T11:56:40.644Z,6.00
2018-12-23T11:59:12.755Z,6.00
2018-12-23T12:01:41.354Z,6.10
2018-12-23T12:04:09.945Z,6.10
2018-12-23T12:06:38.489Z,6.10
2018-12-23T12:09:07.405Z,6.10
2018-12-23T12:11:36.094Z,6.20
2018-12-23T12:14:04.901Z,6.20
2018-12-23T12:16:33.449Z,6.10
2018-12-23T12:19:02.043Z,6.20
2018-12-23T12:21:30.591Z,6.20
2018-12-23T12:23:59.147Z,6.20
2018-12-23T12:26:27.734Z,6.30
2018-12-23T12:28:56.282Z,6.30
2018-12-23T12:31:24.837Z,6.30
2018-12-23T12:33:53.421Z,6.40
2018-12-23T12:36:21.981Z,6.40
2018-12-23T12:38:52.252Z,6.40
2018-12-23T12:41:20.926Z,6.40
2018-12-23T12:43:49.573Z,6.40
2018-12-23T12:46:18.240Z,6.40
2018-12-23T12:48:46.858Z,6.40
2018-12-23T12:51:15.424Z,6.40
2018-12-23T12:53:43.967Z,6.50
2018-12-23T12:56:12.613Z,6.50
2018-12-23T12:58:41.245Z,6.50
2018-12-23T13:01:09.867Z,6.50
2018-12-23T13:03:38.527Z,6.50
2018-12-23T13:06:07.097Z,6.50
2018-12-23T13:08:35.786Z,6.50
2018-12-23T13:11:04.605Z,6.60
2018-12-23T13:13:33.158Z,6.60
2018-12-23T13:16:01.710Z,6.60
2018-12-23T13:18:30.301Z,6.60
2018-12-23T13:21:01.021Z,6.70
2018-12-23T13:23:34.442Z,6.70
2018-12-23T13:26:04.211Z,6.70
2018-12-23T13:28:32.844Z,6.70
2018-12-23T13:31:01.465Z,6.70
2018-12-23T13:33:30.090Z,6.70
2018-12-23T13:35:58.647Z,6.70
2018-12-23T13:38:27.332Z,6.60
2018-12-23T13:41:07.909Z,6.60
2018-12-23T13:43:48.500Z,6.60
2018-12-23T13:46:23.152Z,6.70
2018-12-23T13:48:57.811Z,6.60
2018-12-23T13:51:48.789Z,6.60
2018-12-23T13:54:41.489Z,6.50
2018-12-23T13:57:36.333Z,6.50
2018-12-23T14:00:44.201Z,6.60
2018-12-23T14:03:35.635Z,6.60
2018-12-23T14:06:10.475Z,6.60
2018-12-23T14:08:47.956Z,6.50
2018-12-23T14:11:19.591Z,6.60
2018-12-23T14:13:48.146Z,6.50
2018-12-23T14:16:16.736Z,6.50
2018-12-23T14:18:45.362Z,6.50
2018-12-23T14:21:13.987Z,6.60
2018-12-23T14:23:42.574Z,6.50
2018-12-23T14:26:11.206Z,6.60
2018-12-23T14:28:39.760Z,6.60
2018-12-23T14:31:08.361Z,6.60
2018-12-23T14:33:36.922Z,6.60
2018-12-23T14:36:05.478Z,6.50
2018-12-23T14:38:34.057Z,6.60
2018-12-23T14:41:02.618Z,6.50
2018-12-23T14:43:31.169Z,6.50
2018-12-23T14:45:59.766Z,6.50
2018-12-23T14:48:28.323Z,6.50
2018-12-23T14:50:56.875Z,6.50
2018-12-23T14:53:25.450Z,6.40
2018-12-23T14:55:54.011Z,6.40
2018-12-23T14:58:22.641Z,6.40
2018-12-23T15:00:51.294Z,6.40
2018-12-23T15:03:19.845Z,6.50
2018-12-23T15:05:48.389Z,6.40
2018-12-23T15:08:17.126Z,6.50
2018-12-23T15:10:45.682Z,6.50
2018-12-23T15:13:14.245Z,6.50
2018-12-23T15:15:42.841Z,6.40
2018-12-23T15:18:11.463Z,6.40
2018-12-23T15:20:40.010Z,6.50
2018-12-23T15:23:10.836Z,6.50
2018-12-23T15:25:38.873Z,6.50
2018-12-23T15:28:07.432Z,6.50
2018-12-23T15:30:36.009Z,6.50
2018-12-23T15:33:04.629Z,6.50
2018-12-23T15:35:33.757Z,6.40
2018-12-23T15:38:02.361Z,6.40
2018-12-23T15:40:30.982Z,6.40
2018-12-23T15:42:59.538Z,6.40
2018-12-23T15:45:28.116Z,6.40
2018-12-23T15:47:56.670Z,6.40
2018-12-23T15:50:25.209Z,6.40
2018-12-23T15:52:53.789Z,6.40
2018-12-23T15:55:22.342Z,6.40
2018-12-23T15:57:50.889Z,6.40
2018-12-23T16:00:19.469Z,6.30
2018-12-23T16:02:48.024Z,6.30
2018-12-23T16:05:16.573Z,6.40
2018-12-23T16:07:45.157Z,6.40
2018-12-23T16:10:13.714Z,6.30
2018-12-23T16:12:42.265Z,6.40
2018-12-23T16:15:10.846Z,6.30
2018-12-23T16:17:39.669Z,6.30
2018-12-23T16:20:10.963Z,6.30
2018-12-23T16:22:39.569Z,6.30
2018-12-23T16:25:08.117Z,6.30
2018-12-23T16:27:36.672Z,6.20
2018-12-23T16:30:08.785Z,6.20
2018-12-23T16:32:37.334Z,6.20
2018-12-23T16:35:06.021Z,6.20
2018-12-23T16:37:34.606Z,6.20
2018-12-23T16:40:03.905Z,6.10
2018-12-23T16:42:32.465Z,6.10
2018-12-23T16:45:01.053Z,6.10
2018-12-23T16:47:29.769Z,6.10
2018-12-23T16:49:58.317Z,6.00
2018-12-23T16:52:26.913Z,6.00
2018-12-23T16:54:55.456Z,6.00
2018-12-23T16:57:24.018Z,6.10
2018-12-23T16:59:52.617Z,6.10
2018-12-23T17:02:21.241Z,6.10
2018-12-23T17:04:49.790Z,6.10
2018-12-23T17:07:18.372Z,6.20
2018-12-23T17:09:46.926Z,6.20
2018-12-23T17:12:15.486Z,6.10
2018-12-23T17:14:44.077Z,6.10
2018-12-23T17:17:12.643Z,6.10
2018-12-23T17:19:41.282Z,6.00
2018-12-23T17:22:09.870Z,6.00
2018-12-23T17:24:38.502Z,6.00
2018-12-23T17:27:07.049Z,6.00
2018-12-23T17:29:35.641Z,6.00
2018-12-23T17:32:04.301Z,6.00
2018-12-23T17:34:32.855Z,6.00
2018-12-23T17:37:01.438Z,6.10
2018-12-23T17:39:30.007Z,6.10
2018-12-23T17:41:58.672Z,6.10
2018-12-23T17:44:27.286Z,6.20
2018-12-23T17:46:55.837Z,6.10
2018-12-23T17:49:24.390Z,6.10
2018-12-23T17:51:52.973Z,6.10
2018-12-23T17:54:21.546Z,6.10
2018-12-23T17:56:50.168Z,6.10
2018-12-23T17:59:18.753Z,6.10
2018-12-23T18:01:47.322Z,6.10
2018-12-23T18:04:15.945Z,6.10
2018-12-23T18:06:44.689Z,6.10
2018-12-23T18:09:14.421Z,6.00
2018-12-23T18:11:43.167Z,6.10
2018-12-23T18:14:12.049Z,6.10
2018-12-23T18:16:40.656Z,6.00
2018-12-23T18:19:09.342Z,6.10
2018-12-23T18:21:37.926Z,6.00
2018-12-23T18:24:06.563Z,6.10
2018-12-23T18:26:35.189Z,6.10
2018-12-23T18:29:03.781Z,6.00
2018-12-23T18:31:32.335Z,6.10
2018-12-23T18:34:00.957Z,6.10
2018-12-23T18:36:29.547Z,6.00
2018-12-23T18:38:58.097Z,6.00
2018-12-23T18:41:26.646Z,6.00
2018-12-23T18:43:55.318Z,5.90
2018-12-23T18:46:23.918Z,5.90
2018-12-23T18:48:52.469Z,5.90
2018-12-23T18:51:21.064Z,5.80
2018-12-23T18:53:49.613Z,5.80
2018-12-23T18:56:18.235Z,5.80
2018-12-23T18:58:46.812Z,5.80
2018-12-23T19:01:15.515Z,5.80
2018-12-23T19:03:44.070Z,5.70
2018-12-23T19:06:12.718Z,5.80
2018-12-23T19:08:44.677Z,5.80
2018-12-23T19:11:48.105Z,5.80
2018-12-23T19:14:38.076Z,5.80
2018-12-23T19:17:24.710Z,5.80
2018-12-23T19:19:59.313Z,5.80
2018-12-23T19:22:34.189Z,5.80
2018-12-23T19:25:23.537Z,5.70
2018-12-23T19:28:16.061Z,5.80
2018-12-23T19:30:50.603Z,5.80
2018-12-23T19:33:34.056Z,5.80
2018-12-23T19:36:11.385Z,5.70
2018-12-23T19:38:54.789Z,5.80
2018-12-23T19:41:30.847Z,5.80
2018-12-23T19:44:17.025Z,5.80
2018-12-23T19:46:57.637Z,5.80
2018-12-23T19:49:51.893Z,5.80
2018-12-23T19:52:23.643Z,5.80
2018-12-23T19:55:03.881Z,5.80
2018-12-23T19:57:56.664Z,5.80
2018-12-23T20:00:39.656Z,5.70
2018-12-23T20:03:19.618Z,5.70
2018-12-23T20:06:13.816Z,5.70
2018-12-23T20:08:51.453Z,5.70
2018-12-23T20:11:37.722Z,5.70
2018-12-23T20:14:34.977Z,5.70
2018-12-23T20:17:06.638Z,5.70
2018-12-23T20:19:53.543Z,5.70
2018-12-23T20:22:25.272Z,5.70
2018-12-23T20:25:15.074Z,5.70
2018-12-23T20:28:07.844Z,5.70
2018-12-23T20:30:59.290Z,5.70
2018-12-23T20:33:39.873Z,5.60
2018-12-23T20:36:35.893Z,5.60
2018-12-23T20:39:28.668Z,5.60
2018-12-23T20:42:05.574Z,5.60
2018-12-23T20:44:49.350Z,5.60
2018-12-23T20:47:26.806Z,5.70
2018-12-23T20:50:04.377Z,5.60
2018-12-23T20:52:44.770Z,5.60
2018-12-23T20:55:34.347Z,5.60
2018-12-23T20:58:31.242Z,5.60
2018-12-23T21:01:19.419Z,5.60
2018-12-23T21:03:56.634Z,5.60
2018-12-23T21:06:47.546Z,5.60
2018-12-23T21:09:21.727Z,5.70
2018-12-23T21:12:09.798Z,5.60
2018-12-23T21:14:49.534Z,5.70
2018-12-23T21:17:26.848Z,5.60
2018-12-23T21:20:07.061Z,5.60
2018-12-23T21:22:44.309Z,5.60
2018-12-23T21:25:46.221Z,5.60
2018-12-23T21:28:26.411Z,5.50
2018-12-23T21:31:03.331Z,5.40
2018-12-23T21:33:43.709Z,5.40
2018-12-23T21:36:36.350Z,5.40
2018-12-23T21:39:16.730Z,5.40
2018-12-23T21:41:48.365Z,5.30
2018-12-23T21:44:38.168Z,5.30
2018-12-23T21:47:24.846Z,5.30
2018-12-23T21:50:11.575Z,5.30
2018-12-23T21:53:07.196Z,5.30
2018-12-23T21:56:07.015Z,5.30
2018-12-23T21:58:59.653Z,5.20
2018-12-23T22:01:31.305Z,5.20
2018-12-23T22:04:05.404Z,5.10
2018-12-23T22:06:37.133Z,5.10
2018-12-23T22:09:27.101Z,5.20
2018-12-23T22:12:01.606Z,5.20
2018-12-23T22:14:30.149Z,5.10
2018-12-23T22:16:58.770Z,5.10
2018-12-23T22:19:27.350Z,5.10
2018-12-23T22:21:55.969Z,5.10
2018-12-23T22:24:24.518Z,5.10
2018-12-23T22:26:53.106Z,5.10
2018-12-23T22:29:21.664Z,5.10
2018-12-23T22:31:50.209Z,5.00
2018-12-23T22:34:18.788Z,5.10
2018-12-23T22:36:47.337Z,5.00
2018-12-23T22:39:15.889Z,5.10
2018-12-23T22:41:44.505Z,5.00
2018-12-23T22:44:13.053Z,5.00
2018-12-23T22:46:41.610Z,5.00
2018-12-23T22:49:10.252Z,5.00
2018-12-23T22:51:38.810Z,5.00
2018-12-23T22:54:07.357Z,4.90
2018-12-23T22:56:35.944Z,4.90
2018-12-23T22:59:04.493Z,4.90
2018-12-23T23:01:33.046Z,4.90
2018-12-23T23:04:01.627Z,4.90
2018-12-23T23:06:30.173Z,4.90
2018-12-23T23:08:58.728Z,4.90
2018-12-23T23:11:27.533Z,4.80
2018-12-23T23:13:56.335Z,4.80
2018-12-23T23:16:24.887Z,4.80
2018-12-23T23:18:53.469Z,4.80
2018-12-23T23:21:22.011Z,4.70
2018-12-23T23:23:51.769Z,4.60
2018-12-23T23:26:20.426Z,4.60
2018-12-23T23:28:48.965Z,4.50
2018-12-23T23:31:18.217Z,4.50
2018-12-23T23:33:47.286Z,4.40
2018-12-23T23:36:15.829Z,4.40
2018-12-23T23:38:45.086Z,4.30
2018-12-23T23:41:13.745Z,4.40
2018-12-23T23:43:42.362Z,4.30
2018-12-23T23:46:10.910Z,4.30
2018-12-23T23:48:39.577Z,4.30
2018-12-23T23:51:08.122Z,4.10
2018-12-23T23:53:36.810Z,4.10
2018-12-23T23:56:05.385Z,4.10
2018-12-23T23:58:33.944Z,4.00
